Overview Statistics Trail Chart Weather Telemetry Raw packets
 

This is the latest recevied weather packets stored in our database for station/object KQ7A. If no packets are shown the sender has not sent any weather packets the latest 10 day(s).

<< 109 110 111 112 113 114 >>
Time Temp. Humidity Pressure Rain* Wind** Luminosity Snow
1787853033 29.44° C 33% 1022.1 hPa 0 mm - 1024 W/m² -
1787852733 28.33° C 37% 1022.1 hPa 0 mm - 1004 W/m² -
1787852427 27.78° C 35% 1022.6 hPa 0 mm - 450 W/m² -
1787852126 27.78° C 38% 1022.1 hPa 0 mm - 328 W/m² -
1787851821 27.78° C 35% 1022.6 hPa 0 mm - 333 W/m² -
1787851515 27.78° C 35% 1022.3 hPa 0 mm - 359 W/m² -
1787851215 27.78° C 36% 1022.6 hPa 0 mm - 388 W/m² -
1787850910 27.78° C 40% 1022.2 hPa 0 mm - 982 W/m² -
1787850607 27.22° C 37% 1022.4 hPa 0 mm - 282 W/m² -
1787850301 26.67° C 37% 1022.3 hPa 0 mm - 413 W/m² -
1787849996 27.22° C 41% 1022.3 hPa 0 mm - 388 W/m² -
1787849690 27.22° C 37% 1022.4 hPa 0 mm - 527 W/m² -
1787849385 26.67° C 38% 1022.4 hPa 0 mm - 764 W/m² -
1787849078 26.67° C 38% 1022.2 hPa 0 mm - 634 W/m² -
1787848773 25.56° C 37% 1022.4 hPa 0 mm - 613 W/m² -
1787848467 25° C 41% 1022.3 hPa 0 mm - 489 W/m² -
1787848161 25.56° C 42% 1022.4 hPa 0 mm - 459 W/m² -
1787847856 25° C 44% 1022.3 hPa 0 mm - 503 W/m² -
1787847551 25° C 43% 1022.6 hPa 0 mm - 434 W/m² -
1787847247 25° C 43% 1022.4 hPa 0 mm - 402 W/m² -
1787846944 25° C 42% 1022.7 hPa 0 mm - 405 W/m² -
1787846643 25° C 43% 1022.9 hPa 0 mm - 374 W/m² -
1787846338 24.44° C 45% 1022.6 hPa 0 mm - 399 W/m² -
1787846034 23.33° C 43% 1022.7 hPa 0 mm - 398 W/m² -
1787845730 22.78° C 49% 1022.7 hPa 0 mm - 315 W/m² -

* Rain latest hour (hover to see other rain measurements)
** Current wind speed in m/s (hover to see current wind gust speed)